createdAt,value
2023-04-10T00:00:13.347Z,101339.88
2023-04-10T00:02:40.126Z,101340.34
2023-04-10T00:05:09.891Z,101352.34
2023-04-10T00:07:38.048Z,101350.91
2023-04-10T00:10:05.343Z,101358.34
2023-04-10T00:12:32.672Z,101363.13
2023-04-10T00:14:59.674Z,101369.31
2023-04-10T00:17:26.463Z,101371.53
2023-04-10T00:19:53.301Z,101373.97
2023-04-10T00:22:20.361Z,101371.75
2023-04-10T00:24:47.265Z,101373.59
2023-04-10T00:27:14.069Z,101379.78
2023-04-10T00:29:43.450Z,101372.22
2023-04-10T00:32:13.044Z,101372.06
2023-04-10T00:34:40.019Z,101367.41
2023-04-10T00:37:07.318Z,101371.94
2023-04-10T00:39:34.453Z,101359.84
2023-04-10T00:42:02.416Z,101369.16
2023-04-10T00:44:29.220Z,101372.47
2023-04-10T00:46:56.279Z,101367.59
2023-04-10T00:49:23.318Z,101361.44
2023-04-10T00:51:50.124Z,101357.69
2023-04-10T00:54:17.104Z,101351.75
2023-04-10T00:56:44.997Z,101361.44
2023-04-10T00:59:12.081Z,101348.75
2023-04-10T01:01:39.303Z,101350.00
2023-04-10T01:04:07.046Z,101346.72
2023-04-10T01:06:59.273Z,101343.47
2023-04-10T01:09:47.680Z,101342.75
2023-04-10T01:12:39.423Z,101355.53
2023-04-10T01:15:11.057Z,101350.41
2023-04-10T01:18:06.880Z,101349.59
2023-04-10T01:20:39.798Z,101362.38
2023-04-10T01:23:28.122Z,101364.25
2023-04-10T01:26:06.053Z,101373.28
2023-04-10T01:28:45.018Z,101375.28
2023-04-10T01:31:17.406Z,101376.34
2023-04-10T01:33:49.798Z,101375.75
2023-04-10T01:36:31.890Z,101371.78
2023-04-10T01:38:58.988Z,101377.38
2023-04-10T01:41:27.935Z,101368.31
2023-04-10T01:43:58.083Z,101371.34
2023-04-10T01:46:27.288Z,101371.13
2023-04-10T01:48:56.149Z,101377.06
2023-04-10T01:51:25.856Z,101375.22
2023-04-10T01:53:53.175Z,101364.53
2023-04-10T01:56:24.822Z,101365.75
2023-04-10T01:58:51.804Z,101358.78
2023-04-10T02:01:29.899Z,101359.59
2023-04-10T02:03:59.354Z,101352.84
2023-04-10T02:06:36.655Z,101353.66
2023-04-10T02:09:32.942Z,101344.81
2023-04-10T02:12:06.782Z,101348.53
2023-04-10T02:14:39.275Z,101339.47
2023-04-10T02:17:07.171Z,101339.47
2023-04-10T02:19:35.768Z,101339.91
2023-04-10T02:22:06.072Z,101338.28
2023-04-10T02:24:34.900Z,101340.38
2023-04-10T02:27:01.841Z,101339.66
2023-04-10T02:29:28.582Z,101334.03
2023-04-10T02:31:55.928Z,101340.66
2023-04-10T02:34:22.764Z,101335.88
2023-04-10T02:36:49.520Z,101335.97
2023-04-10T02:39:16.340Z,101331.50
2023-04-10T02:41:49.340Z,101343.66
2023-04-10T02:44:16.478Z,101345.16
2023-04-10T02:46:43.871Z,101340.69
2023-04-10T02:49:12.314Z,101343.38
2023-04-10T02:51:38.947Z,101339.63
2023-04-10T02:54:06.013Z,101341.50
2023-04-10T02:56:35.032Z,101339.84
2023-04-10T02:59:02.202Z,101334.75
2023-04-10T03:01:30.039Z,101336.63
2023-04-10T03:03:58.447Z,101328.00
2023-04-10T03:06:29.176Z,101333.56
2023-04-10T03:08:57.458Z,101329.69
2023-04-10T03:11:24.290Z,101327.25
2023-04-10T03:13:51.420Z,101330.97
2023-04-10T03:16:18.919Z,101326.84
2023-04-10T03:18:46.591Z,101322.78
2023-04-10T03:21:13.298Z,101310.69
2023-04-10T03:23:40.385Z,101306.59
2023-04-10T03:26:07.551Z,101300.66
2023-04-10T03:28:37.934Z,101300.88
2023-04-10T03:31:05.896Z,101292.06
2023-04-10T03:33:35.527Z,101294.94
2023-04-10T03:36:02.947Z,101291.25
2023-04-10T03:38:29.714Z,101287.53
2023-04-10T03:40:56.454Z,101294.94
2023-04-10T03:43:25.782Z,101291.09
2023-04-10T03:45:52.578Z,101297.91
2023-04-10T03:48:21.105Z,101293.44
2023-04-10T03:50:47.891Z,101289.56
2023-04-10T03:53:19.141Z,101288.56
2023-04-10T03:55:46.218Z,101294.69
2023-04-10T03:58:13.290Z,101288.91
2023-04-10T04:00:40.326Z,101298.78
2023-04-10T04:03:18.267Z,101299.81
2023-04-10T04:06:00.230Z,101297.59
2023-04-10T04:08:43.979Z,101296.78
2023-04-10T04:11:11.477Z,101287.34
2023-04-10T04:14:04.498Z,101282.88
2023-04-10T04:16:51.427Z,101276.78
2023-04-10T04:19:34.189Z,101283.38
2023-04-10T04:22:15.965Z,101288.34
2023-04-10T04:25:03.171Z,101291.66
2023-04-10T04:27:49.915Z,101295.78
2023-04-10T04:30:36.910Z,101291.72
2023-04-10T04:33:15.313Z,101301.78
2023-04-10T04:35:57.152Z,101299.56
2023-04-10T04:38:50.188Z,101306.97
2023-04-10T04:41:46.093Z,101305.31
2023-04-10T04:44:24.891Z,101309.41
2023-04-10T04:47:09.095Z,101307.94
2023-04-10T04:49:54.742Z,101312.03
2023-04-10T04:52:44.454Z,101320.25
2023-04-10T04:55:37.116Z,101324.53
2023-04-10T04:58:24.606Z,101328.22
2023-04-10T05:01:09.871Z,101321.59
2023-04-10T05:04:03.267Z,101318.88
2023-04-10T05:06:55.849Z,101326.25
2023-04-10T05:09:54.485Z,101321.88
2023-04-10T05:12:41.911Z,101326.19
2023-04-10T05:15:26.961Z,101315.91
2023-04-10T05:18:13.755Z,101309.09
2023-04-10T05:21:06.913Z,101310.66
2023-04-10T05:23:36.324Z,101311.44
2023-04-10T05:26:21.464Z,101312.03
2023-04-10T05:28:56.523Z,101308.50
2023-04-10T05:31:36.644Z,101309.34
2023-04-10T05:34:32.456Z,101311.78
2023-04-10T05:37:15.997Z,101304.75
2023-04-10T05:40:05.853Z,101314.97
2023-04-10T05:42:50.523Z,101312.47
2023-04-10T05:45:29.138Z,101321.41
2023-04-10T05:48:07.688Z,101324.78
2023-04-10T05:50:46.763Z,101320.03
2023-04-10T05:53:31.811Z,101319.16
2023-04-10T05:56:17.199Z,101322.81
2023-04-10T05:59:21.168Z,101324.34
2023-04-10T06:02:02.416Z,101317.06
2023-04-10T06:04:29.451Z,101316.53
2023-04-10T06:06:58.296Z,101326.13
2023-04-10T06:09:25.773Z,101318.88
2023-04-10T06:11:53.500Z,101313.50
2023-04-10T06:14:23.099Z,101310.38
2023-04-10T06:16:50.022Z,101309.94
2023-04-10T06:19:16.739Z,101308.41
2023-04-10T06:21:46.852Z,101311.81
2023-04-10T06:24:14.353Z,101303.91
2023-04-10T06:26:41.318Z,101309.53
2023-04-10T06:29:09.363Z,101309.16
2023-04-10T06:31:36.520Z,101304.16
2023-04-10T06:34:04.112Z,101308.31
2023-04-10T06:36:31.675Z,101296.31
2023-04-10T06:39:04.393Z,101294.94
2023-04-10T06:41:31.186Z,101295.16
2023-04-10T06:44:07.161Z,101295.66
2023-04-10T06:46:33.976Z,101287.53
2023-04-10T06:49:01.521Z,101303.19
2023-04-10T06:51:28.352Z,101292.06
2023-04-10T06:53:55.442Z,101298.81
2023-04-10T06:56:23.216Z,101286.53
2023-04-10T06:58:50.336Z,101279.06
2023-04-10T07:01:17.863Z,101281.91
2023-04-10T07:03:45.142Z,101282.88
2023-04-10T07:06:12.397Z,101281.56
2023-04-10T07:08:39.107Z,101289.59
2023-04-10T07:11:06.129Z,101291.22
2023-04-10T07:13:35.715Z,101291.00
2023-04-10T07:16:02.712Z,101293.19
2023-04-10T07:18:29.941Z,101292.81
2023-04-10T07:20:57.789Z,101288.53
2023-04-10T07:23:25.931Z,101287.53
2023-04-10T07:25:53.883Z,101277.44
2023-04-10T07:28:40.296Z,101285.19
2023-04-10T07:31:08.252Z,101270.06
2023-04-10T07:33:42.167Z,101275.38
2023-04-10T07:36:14.384Z,101272.31
2023-04-10T07:38:44.338Z,101273.44
2023-04-10T07:41:12.364Z,101273.19
2023-04-10T07:43:51.455Z,101275.69
2023-04-10T07:46:18.529Z,101263.06
2023-04-10T07:48:59.944Z,101260.31
2023-04-10T07:51:34.769Z,101262.69
2023-04-10T07:54:02.831Z,101270.00
2023-04-10T07:56:31.445Z,101277.63
2023-04-10T07:59:01.039Z,101270.13
2023-04-10T08:01:35.233Z,101276.25
2023-04-10T08:04:07.724Z,101272.38
2023-04-10T08:06:37.613Z,101262.81
2023-04-10T08:09:06.624Z,101260.38
2023-04-10T08:11:37.443Z,101256.13
2023-04-10T08:14:07.001Z,101252.66
2023-04-10T08:16:36.193Z,101252.78
2023-04-10T08:19:03.440Z,101250.41
2023-04-10T08:21:32.190Z,101252.56
2023-04-10T08:24:01.202Z,101253.50
2023-04-10T08:26:28.829Z,101251.78
2023-04-10T08:28:58.018Z,101251.44
2023-04-10T08:31:26.848Z,101243.72
2023-04-10T08:33:53.955Z,101247.56
2023-04-10T08:36:21.178Z,101238.72
2023-04-10T08:38:48.601Z,101243.88
2023-04-10T08:41:17.571Z,101237.13
2023-04-10T08:43:46.121Z,101239.34
2023-04-10T08:46:14.386Z,101231.91
2023-04-10T08:48:48.288Z,101231.00
2023-04-10T08:51:20.474Z,101228.97
2023-04-10T08:53:59.515Z,101230.06
2023-04-10T08:56:26.877Z,101215.13
2023-04-10T08:58:53.695Z,101208.06
2023-04-10T09:01:24.947Z,101202.06
2023-04-10T09:03:51.868Z,101200.31
2023-04-10T09:06:18.638Z,101194.13
2023-04-10T09:08:45.621Z,101189.13
2023-04-10T09:11:13.474Z,101168.06
2023-04-10T09:13:43.778Z,101167.19
2023-04-10T09:16:12.145Z,101165.53
2023-04-10T09:18:48.125Z,101161.75
2023-04-10T09:21:19.417Z,101161.25
2023-04-10T09:23:48.175Z,101145.72
2023-04-10T09:26:28.783Z,101139.50
2023-04-10T09:29:05.906Z,101138.19
2023-04-10T09:31:35.498Z,101136.28
2023-04-10T09:34:21.693Z,101132.34
2023-04-10T09:37:00.117Z,101131.00
2023-04-10T09:39:43.372Z,101123.53
2023-04-10T09:42:15.219Z,101119.72
2023-04-10T09:44:46.038Z,101124.88
2023-04-10T09:47:21.501Z,101111.34
2023-04-10T09:49:53.664Z,101110.94
2023-04-10T09:52:23.233Z,101110.81
2023-04-10T09:54:50.353Z,101110.31
2023-04-10T09:57:19.328Z,101097.38
2023-04-10T09:59:51.353Z,101094.81
2023-04-10T10:02:19.991Z,101081.88
2023-04-10T10:04:49.552Z,101089.69
2023-04-10T10:07:17.956Z,101087.47
2023-04-10T10:09:46.767Z,101083.84
2023-04-10T10:12:16.917Z,101077.34
2023-04-10T10:14:51.049Z,101075.38
2023-04-10T10:17:22.484Z,101066.97
2023-04-10T10:20:09.235Z,101073.44
2023-04-10T10:22:37.713Z,101065.63
2023-04-10T10:25:04.901Z,101057.94
2023-04-10T10:27:34.627Z,101057.97
2023-04-10T10:30:08.456Z,101054.31
2023-04-10T10:32:40.554Z,101053.44
2023-04-10T10:35:08.627Z,101046.28
2023-04-10T10:37:36.190Z,101037.22
2023-04-10T10:40:20.975Z,101022.56
2023-04-10T10:42:58.640Z,101015.88
2023-04-10T10:45:37.531Z,101012.63
2023-04-10T10:48:04.222Z,101007.09
2023-04-10T10:50:54.017Z,101001.38
2023-04-10T10:53:32.865Z,101006.66
2023-04-10T10:56:00.243Z,100997.22
2023-04-10T10:58:46.496Z,101001.00
2023-04-10T11:01:13.385Z,100999.47
2023-04-10T11:03:40.664Z,101002.31
2023-04-10T11:06:09.599Z,100992.16
2023-04-10T11:08:44.443Z,100987.28
2023-04-10T11:11:27.520Z,100984.28
2023-04-10T11:13:57.085Z,100981.38
2023-04-10T11:16:46.908Z,100973.31
2023-04-10T11:19:15.937Z,100960.59
2023-04-10T11:22:04.369Z,100955.44
2023-04-10T11:25:02.504Z,100948.97
2023-04-10T11:27:40.555Z,100940.94
2023-04-10T11:30:27.780Z,100937.31
2023-04-10T11:32:58.120Z,100932.50
2023-04-10T11:35:26.830Z,100927.69
2023-04-10T11:38:11.772Z,100942.13
2023-04-10T11:40:54.552Z,100937.16
2023-04-10T11:43:21.503Z,100931.81
2023-04-10T11:45:48.490Z,100925.38
2023-04-10T11:48:17.515Z,100918.25
2023-04-10T11:50:44.302Z,100918.19
2023-04-10T11:53:21.622Z,100914.66
2023-04-10T11:55:51.076Z,100914.78
2023-04-10T11:58:32.815Z,100918.75
2023-04-10T12:01:04.977Z,100906.63
2023-04-10T12:03:39.815Z,100900.00
2023-04-10T12:06:14.846Z,100890.38
2023-04-10T12:08:47.758Z,100885.44
2023-04-10T12:11:16.177Z,100883.56
2023-04-10T12:13:42.947Z,100887.16
2023-04-10T12:16:11.165Z,100876.16
2023-04-10T12:18:38.988Z,100878.50
2023-04-10T12:21:08.331Z,100870.56
2023-04-10T12:23:39.251Z,100867.28
2023-04-10T12:26:11.456Z,100871.78
2023-04-10T12:28:39.930Z,100870.81
2023-04-10T12:31:07.295Z,100866.56
2023-04-10T12:33:34.384Z,100867.59
2023-04-10T12:36:01.555Z,100868.69
2023-04-10T12:38:42.759Z,100859.50
2023-04-10T12:41:11.494Z,100847.56
2023-04-10T12:43:42.637Z,100845.59
2023-04-10T12:46:11.063Z,100850.81
2023-04-10T12:48:38.172Z,100847.47
2023-04-10T12:51:05.114Z,100850.59
2023-04-10T12:53:31.970Z,100848.66
2023-04-10T12:56:06.533Z,100851.28
2023-04-10T12:58:33.488Z,100843.53
2023-04-10T13:01:11.784Z,100842.88
2023-04-10T13:03:38.741Z,100832.81
2023-04-10T13:06:08.442Z,100825.53
2023-04-10T13:08:35.890Z,100825.66
2023-04-10T13:11:06.750Z,100816.53
2023-04-10T13:13:33.638Z,100814.94
2023-04-10T13:16:00.538Z,100817.31
2023-04-10T13:18:27.595Z,100811.09
2023-04-10T13:20:54.388Z,100804.63
2023-04-10T13:23:21.907Z,100795.38
2023-04-10T13:25:48.719Z,100792.75
2023-04-10T13:28:16.144Z,100783.13
2023-04-10T13:30:43.108Z,100791.59
2023-04-10T13:33:10.450Z,100786.78
2023-04-10T13:35:37.573Z,100790.09
2023-04-10T13:38:04.408Z,100784.25
2023-04-10T13:40:31.371Z,100777.53
2023-04-10T13:42:58.625Z,100763.94
2023-04-10T13:45:25.742Z,100752.88
2023-04-10T13:47:52.590Z,100749.81
2023-04-10T13:50:21.515Z,100745.44
2023-04-10T13:52:48.420Z,100745.44
2023-04-10T13:55:15.118Z,100741.91
2023-04-10T13:57:42.825Z,100742.13
2023-04-10T14:00:10.485Z,100730.81
2023-04-10T14:02:40.317Z,100737.47
2023-04-10T14:05:07.693Z,100732.78
2023-04-10T14:07:34.521Z,100737.75
2023-04-10T14:10:02.562Z,100723.22
2023-04-10T14:12:29.371Z,100737.09
2023-04-10T14:14:56.883Z,100717.84
2023-04-10T14:17:24.052Z,100710.78
2023-04-10T14:19:52.457Z,100714.31
2023-04-10T14:22:19.230Z,100713.59
2023-04-10T14:24:52.595Z,100707.22
2023-04-10T14:27:23.109Z,100716.00
2023-04-10T14:29:54.934Z,100710.94
2023-04-10T14:32:22.485Z,100699.38
2023-04-10T14:34:49.489Z,100697.44
2023-04-10T14:37:17.450Z,100686.41
2023-04-10T14:39:44.289Z,100696.66
2023-04-10T14:42:11.184Z,100684.41
2023-04-10T14:44:38.196Z,100679.84
2023-04-10T14:47:08.053Z,100675.97
2023-04-10T14:49:35.008Z,100680.66
2023-04-10T14:52:01.705Z,100668.78
2023-04-10T14:54:28.406Z,100667.94
2023-04-10T14:56:58.239Z,100657.97
2023-04-10T14:59:25.114Z,100650.97
2023-04-10T15:01:54.639Z,100647.66
2023-04-10T15:04:21.801Z,100644.78
2023-04-10T15:06:51.315Z,100643.59
2023-04-10T15:09:19.193Z,100634.88
2023-04-10T15:11:47.580Z,100627.91
2023-04-10T15:14:14.785Z,100627.34
2023-04-10T15:16:42.138Z,100625.16
2023-04-10T15:19:14.308Z,100626.69
2023-04-10T15:21:42.659Z,100613.09
2023-04-10T15:24:12.419Z,100614.22
2023-04-10T15:26:42.943Z,100614.41
2023-04-10T15:29:09.989Z,100611.22
2023-04-10T15:31:37.269Z,100609.59
2023-04-10T15:34:04.177Z,100603.97
2023-04-10T15:36:34.247Z,100606.97
2023-04-10T15:39:03.909Z,100605.09
2023-04-10T15:41:32.578Z,100607.16
2023-04-10T15:43:59.647Z,100607.59
2023-04-10T15:46:27.329Z,100603.38
2023-04-10T15:48:54.302Z,100599.03
2023-04-10T15:51:21.544Z,100596.84
2023-04-10T15:53:48.434Z,100588.25
2023-04-10T15:56:16.196Z,100588.00
2023-04-10T15:58:43.363Z,100581.53
2023-04-10T16:01:10.496Z,100561.06
2023-04-10T16:03:37.416Z,100559.00
2023-04-10T16:06:04.681Z,100557.88
2023-04-10T16:08:31.625Z,100547.44
2023-04-10T16:10:58.459Z,100539.94
2023-04-10T16:13:25.456Z,100534.84
2023-04-10T16:15:54.535Z,100536.78
2023-04-10T16:18:21.353Z,100532.00
2023-04-10T16:20:48.197Z,100530.44
2023-04-10T16:23:16.097Z,100537.34
2023-04-10T16:25:42.861Z,100540.69
2023-04-10T16:28:09.781Z,100537.81
2023-04-10T16:30:36.796Z,100555.75
2023-04-10T16:33:04.351Z,100547.91
2023-04-10T16:35:31.662Z,100545.66
2023-04-10T16:37:59.909Z,100541.16
2023-04-10T16:40:32.691Z,100550.09
2023-04-10T16:43:01.026Z,100549.25
2023-04-10T16:45:29.883Z,100549.91
2023-04-10T16:47:56.845Z,100537.09
2023-04-10T16:50:24.615Z,100536.75
2023-04-10T16:52:51.599Z,100533.22
2023-04-10T16:55:20.022Z,100530.00
2023-04-10T16:57:46.931Z,100526.19
2023-04-10T17:00:17.599Z,100516.72
2023-04-10T17:02:50.008Z,100517.56
2023-04-10T17:05:17.699Z,100504.75
2023-04-10T17:08:19.376Z,100506.31
2023-04-10T17:10:46.667Z,100505.91
2023-04-10T17:13:23.058Z,100511.19
2023-04-10T17:15:50.118Z,100505.56
2023-04-10T17:18:17.613Z,100503.00
2023-04-10T17:20:47.068Z,100507.59
2023-04-10T17:23:15.937Z,100493.38
2023-04-10T17:25:42.799Z,100503.72
2023-04-10T17:28:09.682Z,100496.97
2023-04-10T17:30:36.381Z,100491.69
2023-04-10T17:33:03.133Z,100491.69
2023-04-10T17:35:29.968Z,100485.88
2023-04-10T17:37:57.422Z,100462.84
2023-04-10T17:40:25.222Z,100460.38
2023-04-10T17:42:52.978Z,100452.69
2023-04-10T17:45:19.781Z,100453.59
2023-04-10T17:47:46.598Z,100463.84
2023-04-10T17:50:13.413Z,100467.66
2023-04-10T17:52:40.632Z,100466.56
2023-04-10T17:55:07.834Z,100463.84
2023-04-10T17:57:35.096Z,100461.75
2023-04-10T18:00:01.809Z,100472.06
2023-04-10T18:02:28.601Z,100472.69
2023-04-10T18:04:56.758Z,100463.41
2023-04-10T18:07:23.626Z,100464.22
2023-04-10T18:09:50.406Z,100461.50
2023-04-10T18:12:17.165Z,100473.56
2023-04-10T18:14:45.672Z,100482.34
2023-04-10T18:17:12.623Z,100499.69
2023-04-10T18:19:39.928Z,100493.78
2023-04-10T18:22:07.273Z,100502.53
2023-04-10T18:24:34.193Z,100495.00
2023-04-10T18:27:01.933Z,100484.47
2023-04-10T18:29:31.363Z,100481.28
2023-04-10T18:31:58.120Z,100472.66
2023-04-10T18:34:24.945Z,100471.94
2023-04-10T18:36:52.038Z,100482.91
2023-04-10T18:39:19.036Z,100488.34
2023-04-10T18:41:45.949Z,100491.84
2023-04-10T18:44:12.838Z,100490.56
2023-04-10T18:46:46.182Z,100474.88
2023-04-10T18:49:17.663Z,100468.47
2023-04-10T18:51:50.711Z,100469.59
2023-04-10T18:54:17.587Z,100469.88
2023-04-10T18:56:44.304Z,100465.25
2023-04-10T18:59:10.911Z,100479.94
2023-04-10T19:01:39.624Z,100484.56
2023-04-10T19:04:06.765Z,100491.34
2023-04-10T19:06:35.107Z,100497.41
2023-04-10T19:09:01.938Z,100498.00
2023-04-10T19:11:28.796Z,100510.25
2023-04-10T19:13:55.649Z,100520.09
2023-04-10T19:16:22.876Z,100519.91
2023-04-10T19:18:49.837Z,100508.81
2023-04-10T19:21:17.144Z,100483.16
2023-04-10T19:23:43.901Z,100477.22
2023-04-10T19:26:10.873Z,100490.56
2023-04-10T19:28:37.634Z,100484.44
2023-04-10T19:31:04.503Z,100483.44
2023-04-10T19:33:31.424Z,100485.63
2023-04-10T19:35:59.128Z,100490.06
2023-04-10T19:38:27.478Z,100486.34
2023-04-10T19:40:54.786Z,100487.47
2023-04-10T19:43:23.070Z,100484.31
2023-04-10T19:45:53.312Z,100487.25
2023-04-10T19:48:24.451Z,100483.44
2023-04-10T19:51:06.801Z,100478.31
2023-04-10T19:53:39.670Z,100474.09
2023-04-10T19:56:06.899Z,100473.59
2023-04-10T19:58:40.403Z,100466.09
2023-04-10T20:01:08.988Z,100452.06
2023-04-10T20:03:36.829Z,100452.63
2023-04-10T20:06:04.978Z,100440.00
2023-04-10T20:08:36.827Z,100439.22
2023-04-10T20:11:13.308Z,100425.97
2023-04-10T20:13:51.906Z,100423.56
2023-04-10T20:16:27.549Z,100420.34
2023-04-10T20:18:57.184Z,100419.34
2023-04-10T20:21:24.213Z,100412.34
2023-04-10T20:23:51.161Z,100417.81
2023-04-10T20:26:17.946Z,100409.53
2023-04-10T20:28:49.780Z,100410.09
2023-04-10T20:31:23.066Z,100407.19
2023-04-10T20:34:19.870Z,100403.50
2023-04-10T20:37:13.688Z,100394.56
2023-04-10T20:39:40.499Z,100395.06
2023-04-10T20:42:07.264Z,100387.84
2023-04-10T20:44:40.580Z,100381.66
2023-04-10T20:47:07.496Z,100377.03
2023-04-10T20:49:37.412Z,100367.22
2023-04-10T20:52:07.149Z,100371.03
2023-04-10T20:54:34.126Z,100374.63
2023-04-10T20:57:06.073Z,100385.25
2023-04-10T20:59:38.480Z,100378.19
2023-04-10T21:02:06.322Z,100390.66
2023-04-10T21:04:33.665Z,100389.53
2023-04-10T21:07:00.799Z,100390.66
2023-04-10T21:09:27.643Z,100399.84
2023-04-10T21:11:54.741Z,100401.47
2023-04-10T21:14:21.691Z,100390.66
2023-04-10T21:16:49.222Z,100395.03
2023-04-10T21:19:20.043Z,100390.81
2023-04-10T21:21:50.125Z,100402.72
2023-04-10T21:24:17.088Z,100392.22
2023-04-10T21:26:43.937Z,100383.00
2023-04-10T21:29:14.349Z,100376.16
2023-04-10T21:31:41.138Z,100361.06
2023-04-10T21:34:11.242Z,100369.75
2023-04-10T21:36:42.296Z,100371.66
2023-04-10T21:39:09.584Z,100379.56
2023-04-10T21:41:38.112Z,100363.16
2023-04-10T21:44:08.959Z,100354.81
2023-04-10T21:46:56.387Z,100344.06
2023-04-10T21:49:30.164Z,100315.44
2023-04-10T21:52:38.397Z,100288.59
2023-04-10T21:55:06.455Z,100290.38
2023-04-10T21:57:33.508Z,100299.06
2023-04-10T22:00:01.473Z,100300.56
2023-04-10T22:02:42.819Z,100293.84
2023-04-10T22:05:24.496Z,100285.72
2023-04-10T22:07:57.538Z,100286.75
2023-04-10T22:10:24.603Z,100271.53
2023-04-10T22:12:51.427Z,100272.66
2023-04-10T22:15:24.683Z,100271.25
2023-04-10T22:17:51.908Z,100273.66
2023-04-10T22:20:18.805Z,100273.16
2023-04-10T22:22:51.968Z,100259.72
2023-04-10T22:25:18.817Z,100263.09
2023-04-10T22:27:45.985Z,100280.72
2023-04-10T22:30:16.449Z,100279.31
2023-04-10T22:32:45.941Z,100267.94
2023-04-10T22:35:16.235Z,100274.34
2023-04-10T22:37:55.956Z,100282.97
2023-04-10T22:40:29.218Z,100295.34
2023-04-10T22:42:56.186Z,100293.66
2023-04-10T22:45:24.049Z,100296.09
2023-04-10T22:47:58.735Z,100295.69
2023-04-10T22:50:25.727Z,100313.03
2023-04-10T22:53:00.127Z,100304.19
2023-04-10T22:55:31.903Z,100310.47
2023-04-10T22:58:01.125Z,100314.78
2023-04-10T23:00:28.073Z,100321.78
2023-04-10T23:02:55.283Z,100326.38
2023-04-10T23:05:22.509Z,100330.75
2023-04-10T23:07:49.222Z,100327.03
2023-04-10T23:10:16.076Z,100328.56
2023-04-10T23:12:42.933Z,100336.38
2023-04-10T23:15:13.401Z,100328.00
2023-04-10T23:17:42.878Z,100327.66
2023-04-10T23:20:10.346Z,100335.94
2023-04-10T23:22:37.176Z,100342.69
2023-04-10T23:25:05.417Z,100341.91
2023-04-10T23:27:42.061Z,100336.50
2023-04-10T23:30:09.100Z,100325.78
2023-04-10T23:32:36.074Z,100326.34
2023-04-10T23:35:02.888Z,100330.16
2023-04-10T23:37:29.596Z,100317.47
2023-04-10T23:39:56.254Z,100314.69
2023-04-10T23:42:23.094Z,100311.78
2023-04-10T23:44:50.622Z,100298.94
2023-04-10T23:47:17.635Z,100307.38
2023-04-10T23:49:45.906Z,100302.31
2023-04-10T23:52:12.670Z,100294.22
2023-04-10T23:54:39.871Z,100291.53
2023-04-10T23:57:08.947Z,100295.31
2023-04-10T23:59:38.649Z,100296.41
